Dunholme, United Kingdom
Current Conditions -  °F | °C
As of 12:50 AM on Monday 24 Nov 2014 (Local Time) from EGXP Reporting Station
Clear Clear  
Wind Chill: 26°   Ceiling: Unl
Heat Index: 34°   Visibility: 6mi
Dew Point: 34°   Wind: 10mph
Humidity: 100%   Direction: 230°SW
Pressure: 30.15"   Gusts: NA
Location:  53.3°N, 0.47°W
Report Text: EGXP 240050Z AUTO 23009KT 9999 // NCD 01/01 Q1021
Loading
Personal Weather Stations






























Interactive Weather Map New forecast layout! Learn more

10-Day Weather Forecast

Advertisements
Track Severe Weather on mobile